createdAt,value
2019-05-22T00:00:24.052Z,18.90
2019-05-22T00:02:53.691Z,18.90
2019-05-22T00:05:24.281Z,18.90
2019-05-22T00:07:53.751Z,18.80
2019-05-22T00:10:26.183Z,18.90
2019-05-22T00:12:57.743Z,18.80
2019-05-22T00:15:26.874Z,18.90
2019-05-22T00:17:57.866Z,18.90
2019-05-22T00:20:27.343Z,18.80
2019-05-22T00:22:57.906Z,18.70
2019-05-22T00:25:28.926Z,18.70
2019-05-22T00:27:59.848Z,18.70
2019-05-22T00:30:31.410Z,18.70
2019-05-22T00:33:00.894Z,18.70
2019-05-22T00:35:31.338Z,18.70
2019-05-22T00:38:01.935Z,18.70
2019-05-22T00:40:32.891Z,18.70
2019-05-22T00:43:05.485Z,18.60
2019-05-22T00:45:34.251Z,18.60
2019-05-22T00:48:03.446Z,18.60
2019-05-22T00:50:34.900Z,18.50
2019-05-22T00:53:22.382Z,18.50
2019-05-22T00:55:53.036Z,18.50
2019-05-22T00:58:30.148Z,18.50
2019-05-22T01:01:05.050Z,18.60
2019-05-22T01:03:34.183Z,18.60
2019-05-22T01:06:05.299Z,18.60
2019-05-22T01:08:37.591Z,18.60
2019-05-22T01:11:07.616Z,18.60
2019-05-22T01:13:37.538Z,18.70
2019-05-22T01:16:07.867Z,18.70
2019-05-22T01:18:39.077Z,18.80
2019-05-22T01:21:07.934Z,18.80
2019-05-22T01:23:36.783Z,18.80
2019-05-22T01:26:08.471Z,18.80
2019-05-22T01:28:37.430Z,18.80
2019-05-22T01:31:10.758Z,18.70
2019-05-22T01:33:57.161Z,18.70
2019-05-22T01:36:30.996Z,18.70
2019-05-22T01:39:04.484Z,18.70
2019-05-22T01:41:36.283Z,18.70
2019-05-22T01:44:07.322Z,18.70
2019-05-22T01:46:39.700Z,18.60
2019-05-22T01:49:12.411Z,18.50
2019-05-22T01:51:42.523Z,18.50
2019-05-22T01:54:11.415Z,18.40
2019-05-22T01:56:41.805Z,18.40
2019-05-22T01:59:11.322Z,18.40
2019-05-22T02:01:40.349Z,18.30
2019-05-22T02:04:10.057Z,18.30
2019-05-22T02:06:39.551Z,18.30
2019-05-22T02:09:21.868Z,18.30
2019-05-22T02:11:54.358Z,18.30
2019-05-22T02:14:22.354Z,18.30
2019-05-22T02:16:56.878Z,18.30
2019-05-22T02:19:25.197Z,18.40
2019-05-22T02:21:55.218Z,18.30
2019-05-22T02:24:24.012Z,18.40
2019-05-22T02:26:54.523Z,18.40
2019-05-22T02:29:23.655Z,18.40
2019-05-22T02:31:55.445Z,18.40
2019-05-22T02:34:24.843Z,18.40
2019-05-22T02:36:54.201Z,18.40
2019-05-22T02:39:30.935Z,18.50
2019-05-22T02:42:12.056Z,18.50
2019-05-22T02:44:41.983Z,18.60
2019-05-22T02:47:19.561Z,18.60
2019-05-22T02:49:43.056Z,18.70
2019-05-22T02:52:13.539Z,18.80
2019-05-22T02:54:43.168Z,18.80
2019-05-22T02:57:13.079Z,18.90
2019-05-22T02:59:42.388Z,19.00
2019-05-22T03:02:14.092Z,19.10
2019-05-22T03:04:59.490Z,19.10
2019-05-22T03:07:30.347Z,19.20
2019-05-22T03:10:01.932Z,19.20
2019-05-22T03:12:32.843Z,19.30
2019-05-22T03:15:02.497Z,19.30
2019-05-22T03:17:32.400Z,19.30
2019-05-22T03:20:04.847Z,19.40
2019-05-22T03:22:35.925Z,19.40
2019-05-22T03:25:14.456Z,19.40
2019-05-22T03:27:49.442Z,19.50
2019-05-22T03:30:27.166Z,19.50
2019-05-22T03:32:57.143Z,19.60
2019-05-22T03:35:28.155Z,19.60
2019-05-22T03:37:59.222Z,19.60
2019-05-22T03:40:31.093Z,19.70
2019-05-22T03:43:02.715Z,19.70
2019-05-22T03:45:33.067Z,19.80
2019-05-22T03:48:04.757Z,19.80
2019-05-22T03:50:34.025Z,19.90
2019-05-22T03:53:17.993Z,20.00
2019-05-22T03:55:49.283Z,20.10
2019-05-22T03:58:18.922Z,20.20
2019-05-22T04:00:50.649Z,20.30
2019-05-22T04:03:21.161Z,20.40
2019-05-22T04:05:50.606Z,20.50
2019-05-22T04:08:22.963Z,20.60
2019-05-22T04:11:02.225Z,20.60
2019-05-22T04:13:33.071Z,20.70
2019-05-22T04:16:05.078Z,20.80
2019-05-22T04:18:35.986Z,20.90
2019-05-22T04:21:06.187Z,21.00
2019-05-22T04:23:36.137Z,21.10
2019-05-22T04:26:08.886Z,21.20
2019-05-22T04:28:49.558Z,21.20
2019-05-22T04:31:19.405Z,21.20
2019-05-22T04:33:48.335Z,21.20
2019-05-22T04:36:17.179Z,21.20
2019-05-22T04:38:46.845Z,21.20
2019-05-22T04:41:16.966Z,21.10
2019-05-22T04:43:45.655Z,21.10
2019-05-22T04:46:14.502Z,21.00
2019-05-22T04:48:46.062Z,21.00
2019-05-22T04:51:24.192Z,20.90
2019-05-22T04:53:54.110Z,20.90
2019-05-22T04:56:24.491Z,20.90
2019-05-22T04:58:54.870Z,20.90
2019-05-22T05:01:24.652Z,21.00
2019-05-22T05:03:56.374Z,20.90
2019-05-22T05:06:26.578Z,20.90
2019-05-22T05:08:56.581Z,20.80
2019-05-22T05:11:25.562Z,20.60
2019-05-22T05:13:54.979Z,20.50
2019-05-22T05:16:23.683Z,20.40
2019-05-22T05:18:52.598Z,20.40
2019-05-22T05:21:21.279Z,20.40
2019-05-22T05:23:50.052Z,20.40
2019-05-22T05:26:19.546Z,20.40
2019-05-22T05:28:48.234Z,20.40
2019-05-22T05:31:17.631Z,20.40
2019-05-22T05:34:01.339Z,20.40
2019-05-22T05:36:30.758Z,20.40
2019-05-22T05:39:00.538Z,20.40
2019-05-22T05:41:30.190Z,20.40
2019-05-22T05:43:59.813Z,20.40
2019-05-22T05:46:28.953Z,20.30
2019-05-22T05:48:57.588Z,20.20
2019-05-22T05:51:29.271Z,20.20
2019-05-22T05:54:07.340Z,20.20
2019-05-22T05:56:39.589Z,20.20
2019-05-22T05:59:09.383Z,20.10
2019-05-22T06:01:40.641Z,20.00
2019-05-22T06:04:10.246Z,20.00
2019-05-22T06:06:42.004Z,20.00
2019-05-22T06:09:14.849Z,20.00
2019-05-22T06:11:56.379Z,20.00
2019-05-22T06:14:30.708Z,19.90
2019-05-22T06:17:26.293Z,19.90
2019-05-22T06:20:12.052Z,20.00
2019-05-22T06:22:46.043Z,20.00
2019-05-22T06:25:16.694Z,20.00
2019-05-22T06:27:49.519Z,20.10
2019-05-22T06:30:21.723Z,20.20
2019-05-22T06:33:13.121Z,20.30
2019-05-22T06:35:44.730Z,20.40
2019-05-22T06:38:28.947Z,20.50
2019-05-22T06:40:58.886Z,20.60
2019-05-22T06:43:31.586Z,20.60
2019-05-22T06:46:00.659Z,20.60
2019-05-22T06:48:29.789Z,20.60
2019-05-22T06:50:58.531Z,20.70
2019-05-22T06:53:27.494Z,20.60
2019-05-22T06:55:57.295Z,20.60
2019-05-22T06:58:26.670Z,20.60
2019-05-22T07:01:02.532Z,20.60
2019-05-22T07:03:31.042Z,20.60
2019-05-22T07:06:01.015Z,20.60
2019-05-22T07:08:30.033Z,20.60
2019-05-22T07:10:59.076Z,20.60
2019-05-22T07:13:28.404Z,20.60
2019-05-22T07:15:58.566Z,20.60
2019-05-22T07:18:29.179Z,20.70
2019-05-22T07:20:59.954Z,20.90
2019-05-22T07:23:29.463Z,21.20
2019-05-22T07:25:59.053Z,21.60
2019-05-22T07:28:29.085Z,22.00
2019-05-22T07:30:58.825Z,22.30
2019-05-22T07:33:27.910Z,22.60
2019-05-22T07:36:09.539Z,22.70
2019-05-22T07:38:28.572Z,22.80
2019-05-22T07:40:58.264Z,22.80
2019-05-22T07:43:28.310Z,22.80
2019-05-22T07:45:57.854Z,22.70
2019-05-22T07:48:27.753Z,22.70
2019-05-22T07:50:57.739Z,22.90
2019-05-22T07:53:26.802Z,23.10
2019-05-22T07:55:57.837Z,23.20
2019-05-22T07:58:29.797Z,23.30
2019-05-22T08:01:01.680Z,23.50
2019-05-22T08:03:32.753Z,23.50
2019-05-22T08:06:01.673Z,23.70
2019-05-22T08:08:33.574Z,23.80
2019-05-22T08:11:03.378Z,23.80
2019-05-22T08:13:33.272Z,24.00
2019-05-22T08:16:02.674Z,24.20
2019-05-22T08:18:33.351Z,24.40
2019-05-22T08:21:02.916Z,24.50
2019-05-22T08:23:32.610Z,24.40
2019-05-22T08:26:02.019Z,24.60
2019-05-22T08:28:32.353Z,24.80
2019-05-22T08:31:02.382Z,25.00
2019-05-22T08:33:34.638Z,25.10
2019-05-22T08:36:03.564Z,25.10
2019-05-22T08:38:33.962Z,25.00
2019-05-22T08:41:05.536Z,24.90
2019-05-22T08:43:55.936Z,24.80
2019-05-22T08:46:07.110Z,24.80
2019-05-22T08:48:38.647Z,24.70
2019-05-22T08:51:09.019Z,24.80
2019-05-22T08:53:47.292Z,24.90
2019-05-22T08:56:09.861Z,25.00
2019-05-22T08:58:39.833Z,24.90
2019-05-22T09:01:10.492Z,25.00
2019-05-22T09:03:39.709Z,25.10
2019-05-22T09:06:09.493Z,25.30
2019-05-22T09:08:38.248Z,25.40
2019-05-22T09:11:07.155Z,25.60
2019-05-22T09:13:36.839Z,25.60
2019-05-22T09:16:06.299Z,26.00
2019-05-22T09:18:35.339Z,27.10
2019-05-22T09:21:04.602Z,28.50
2019-05-22T09:23:35.752Z,29.80
2019-05-22T09:26:06.602Z,30.90
2019-05-22T09:28:36.134Z,31.60
2019-05-22T09:31:05.728Z,32.20
2019-05-22T09:33:36.134Z,32.70
2019-05-22T09:36:06.807Z,33.00
2019-05-22T09:38:35.790Z,33.60
2019-05-22T09:41:05.217Z,34.10
2019-05-22T09:43:34.378Z,34.50
2019-05-22T09:46:03.434Z,35.10
2019-05-22T09:48:34.526Z,35.30
2019-05-22T09:51:03.381Z,34.40
2019-05-22T09:53:32.785Z,34.70
2019-05-22T09:56:03.805Z,34.50
2019-05-22T09:58:33.289Z,34.10
2019-05-22T10:01:02.563Z,33.60
2019-05-22T10:03:32.142Z,33.30
2019-05-22T10:06:01.558Z,33.10
2019-05-22T10:08:31.104Z,32.90
2019-05-22T10:11:00.374Z,32.90
2019-05-22T10:13:29.540Z,33.00
2019-05-22T10:15:58.994Z,34.40
2019-05-22T10:18:27.730Z,36.40
2019-05-22T10:20:57.506Z,38.00
2019-05-22T10:23:27.022Z,38.50
2019-05-22T10:25:55.971Z,38.10
2019-05-22T10:28:24.620Z,37.40
2019-05-22T10:30:54.403Z,37.00
2019-05-22T10:33:24.354Z,38.00
2019-05-22T10:35:53.387Z,38.00
2019-05-22T10:38:22.487Z,38.60
2019-05-22T10:40:51.493Z,39.50
2019-05-22T10:43:20.924Z,40.50
2019-05-22T10:45:49.905Z,41.20
2019-05-22T10:48:19.115Z,40.40
2019-05-22T10:50:47.765Z,40.20
2019-05-22T10:53:32.211Z,40.20
2019-05-22T10:55:46.813Z,39.20
2019-05-22T10:58:15.651Z,39.30
2019-05-22T11:00:44.511Z,39.70
2019-05-22T11:03:16.264Z,40.10
2019-05-22T11:05:45.545Z,40.90
2019-05-22T11:08:14.702Z,41.80
2019-05-22T11:10:45.240Z,42.40
2019-05-22T11:13:14.106Z,43.40
2019-05-22T11:15:44.959Z,44.10
2019-05-22T11:18:14.008Z,45.10
2019-05-22T11:20:43.923Z,45.00
2019-05-22T11:23:13.241Z,45.50
2019-05-22T11:25:42.455Z,44.80
2019-05-22T11:28:11.122Z,44.50
2019-05-22T11:30:40.729Z,43.70
2019-05-22T11:33:10.304Z,43.30
2019-05-22T11:35:39.978Z,43.90
2019-05-22T11:38:09.525Z,45.00
2019-05-22T11:40:39.495Z,45.80
2019-05-22T11:43:09.451Z,46.60
2019-05-22T11:45:38.573Z,45.50
2019-05-22T11:48:08.547Z,44.20
2019-05-22T11:50:38.462Z,43.90
2019-05-22T11:53:07.167Z,44.10
2019-05-22T11:55:44.804Z,44.80
2019-05-22T11:58:08.485Z,45.70
2019-05-22T12:00:37.211Z,46.10
2019-05-22T12:03:06.690Z,46.50
2019-05-22T12:05:36.106Z,47.20
2019-05-22T12:08:06.448Z,47.70
2019-05-22T12:10:37.417Z,48.30
2019-05-22T12:13:07.680Z,48.60
2019-05-22T12:15:37.199Z,49.10
2019-05-22T12:18:07.043Z,48.30
2019-05-22T12:20:36.439Z,47.60
2019-05-22T12:23:05.425Z,47.70
2019-05-22T12:25:34.251Z,48.00
2019-05-22T12:28:03.169Z,47.40
2019-05-22T12:30:32.136Z,47.80
2019-05-22T12:33:01.191Z,48.20
2019-05-22T12:35:31.356Z,48.80
2019-05-22T12:38:01.405Z,48.90
2019-05-22T12:40:33.899Z,48.90
2019-05-22T12:43:03.530Z,48.30
2019-05-22T12:45:33.794Z,46.80
2019-05-22T12:48:04.161Z,45.80
2019-05-22T12:50:33.961Z,45.50
2019-05-22T12:53:05.738Z,44.60
2019-05-22T12:55:35.076Z,43.70
2019-05-22T12:58:05.845Z,43.30
2019-05-22T13:00:36.335Z,44.00
2019-05-22T13:03:08.654Z,45.10
2019-05-22T13:05:39.839Z,45.10
2019-05-22T13:08:11.605Z,44.50
2019-05-22T13:10:40.391Z,43.70
2019-05-22T13:13:09.999Z,42.40
2019-05-22T13:15:40.500Z,41.20
2019-05-22T13:18:11.034Z,40.20
2019-05-22T13:20:44.661Z,39.20
2019-05-22T13:23:13.885Z,38.30
2019-05-22T13:25:43.862Z,37.80
2019-05-22T13:28:18.081Z,37.30
2019-05-22T13:30:50.192Z,36.90
2019-05-22T13:33:22.504Z,36.50
2019-05-22T13:35:52.211Z,36.30
2019-05-22T13:38:21.383Z,36.10
2019-05-22T13:40:51.916Z,36.10
2019-05-22T13:43:23.025Z,35.90
2019-05-22T13:45:52.249Z,35.70
2019-05-22T13:48:21.354Z,35.60
2019-05-22T13:50:51.309Z,35.70
2019-05-22T13:53:20.585Z,36.00
2019-05-22T13:55:49.625Z,36.30
2019-05-22T13:58:21.326Z,36.60
2019-05-22T14:00:51.545Z,36.50
2019-05-22T14:03:20.958Z,36.10
2019-05-22T14:05:51.873Z,35.70
2019-05-22T14:08:22.099Z,35.20
2019-05-22T14:10:53.161Z,34.70
2019-05-22T14:13:24.499Z,34.20
2019-05-22T14:15:56.887Z,33.80
2019-05-22T14:18:24.723Z,33.50
2019-05-22T14:20:53.447Z,33.30
2019-05-22T14:23:22.187Z,33.30
2019-05-22T14:25:51.892Z,33.40
2019-05-22T14:28:22.561Z,33.40
2019-05-22T14:30:52.460Z,33.60
2019-05-22T14:33:22.027Z,33.70
2019-05-22T14:35:52.772Z,33.80
2019-05-22T14:38:21.832Z,34.00
2019-05-22T14:40:51.057Z,34.10
2019-05-22T14:43:21.583Z,34.00
2019-05-22T14:45:50.692Z,33.80
2019-05-22T14:48:19.944Z,33.60
2019-05-22T14:50:49.236Z,33.60
2019-05-22T14:53:18.343Z,33.80
2019-05-22T14:55:48.259Z,34.00
2019-05-22T14:58:18.091Z,34.10
2019-05-22T15:00:48.962Z,34.00
2019-05-22T15:03:19.378Z,33.80
2019-05-22T15:05:48.059Z,33.70
2019-05-22T15:08:16.767Z,33.50
2019-05-22T15:10:46.297Z,33.30
2019-05-22T15:13:16.380Z,33.20
2019-05-22T15:15:47.262Z,33.10
2019-05-22T15:18:16.493Z,32.90
2019-05-22T15:20:47.338Z,32.70
2019-05-22T15:23:16.506Z,32.60
2019-05-22T15:25:45.449Z,32.30
2019-05-22T15:28:14.824Z,32.10
2019-05-22T15:30:44.046Z,31.90
2019-05-22T15:33:13.459Z,31.70
2019-05-22T15:35:43.284Z,31.60
2019-05-22T15:38:12.892Z,31.40
2019-05-22T15:40:41.633Z,31.30
2019-05-22T15:43:11.639Z,31.30
2019-05-22T15:45:42.229Z,31.20
2019-05-22T15:48:34.972Z,31.20
2019-05-22T15:51:07.853Z,31.20
2019-05-22T15:53:40.235Z,31.30
2019-05-22T15:56:10.680Z,31.60
2019-05-22T15:58:42.766Z,32.40
2019-05-22T16:01:15.223Z,33.30
2019-05-22T16:03:47.011Z,34.30
2019-05-22T16:06:15.540Z,35.30
2019-05-22T16:08:45.216Z,35.90
2019-05-22T16:11:16.979Z,36.00
2019-05-22T16:13:48.242Z,36.30
2019-05-22T16:16:17.263Z,36.60
2019-05-22T16:18:47.419Z,36.40
2019-05-22T16:21:18.158Z,36.50
2019-05-22T16:23:48.187Z,36.30
2019-05-22T16:26:18.911Z,36.30
2019-05-22T16:28:49.732Z,36.40
2019-05-22T16:31:20.539Z,36.40
2019-05-22T16:33:52.031Z,36.70
2019-05-22T16:36:21.009Z,37.10
2019-05-22T16:38:51.922Z,37.50
2019-05-22T16:41:22.662Z,37.50
2019-05-22T16:43:52.366Z,37.50
2019-05-22T16:46:22.090Z,36.80
2019-05-22T16:48:52.054Z,36.70
2019-05-22T16:51:22.318Z,36.10
2019-05-22T16:53:56.936Z,35.60
2019-05-22T16:56:27.906Z,35.40
2019-05-22T16:58:57.549Z,34.90
2019-05-22T17:01:28.036Z,34.80
2019-05-22T17:03:59.598Z,34.50
2019-05-22T17:06:29.382Z,34.10
2019-05-22T17:09:01.068Z,33.90
2019-05-22T17:11:31.451Z,33.70
2019-05-22T17:14:03.575Z,33.40
2019-05-22T17:16:34.590Z,33.20
2019-05-22T17:19:25.151Z,33.10
2019-05-22T17:21:37.201Z,32.60
2019-05-22T17:24:09.635Z,32.40
2019-05-22T17:26:38.795Z,32.40
2019-05-22T17:29:08.028Z,32.40
2019-05-22T17:31:42.770Z,32.50
2019-05-22T17:34:29.719Z,32.40
2019-05-22T17:36:59.291Z,32.20
2019-05-22T17:39:30.640Z,31.90
2019-05-22T17:42:00.356Z,31.70
2019-05-22T17:44:29.968Z,31.50
2019-05-22T17:46:59.742Z,31.20
2019-05-22T17:49:29.335Z,30.80
2019-05-22T17:51:58.410Z,30.20
2019-05-22T17:54:28.297Z,29.90
2019-05-22T17:57:00.908Z,29.50
2019-05-22T17:59:29.926Z,29.20
2019-05-22T18:01:59.452Z,28.80
2019-05-22T18:04:28.771Z,28.40
2019-05-22T18:06:57.387Z,28.10
2019-05-22T18:09:27.517Z,27.80
2019-05-22T18:11:56.467Z,27.60
2019-05-22T18:14:25.594Z,27.40
2019-05-22T18:16:56.243Z,27.20
2019-05-22T18:19:26.103Z,27.00
2019-05-22T18:21:55.904Z,27.00
2019-05-22T18:24:24.858Z,27.00
2019-05-22T18:26:53.558Z,26.70
2019-05-22T18:29:22.215Z,26.70
2019-05-22T18:31:51.804Z,26.60
2019-05-22T18:34:20.667Z,26.50
2019-05-22T18:36:49.783Z,26.50
2019-05-22T18:39:19.211Z,26.30
2019-05-22T18:41:47.841Z,26.20
2019-05-22T18:44:16.639Z,26.20
2019-05-22T18:46:45.412Z,26.00
2019-05-22T18:49:14.109Z,26.00
2019-05-22T18:51:44.833Z,25.80
2019-05-22T18:54:13.498Z,25.80
2019-05-22T18:56:42.603Z,25.70
2019-05-22T18:59:11.416Z,25.50
2019-05-22T19:01:40.481Z,25.30
2019-05-22T19:04:09.155Z,25.10
2019-05-22T19:06:38.366Z,25.10
2019-05-22T19:09:09.535Z,25.00
2019-05-22T19:11:38.941Z,24.80
2019-05-22T19:14:08.668Z,24.70
2019-05-22T19:16:38.516Z,24.60
2019-05-22T19:19:07.447Z,24.60
2019-05-22T19:21:36.195Z,24.50
2019-05-22T19:24:05.689Z,24.50
2019-05-22T19:26:36.050Z,24.40
2019-05-22T19:29:05.685Z,24.30
2019-05-22T19:31:35.244Z,24.10
2019-05-22T19:34:04.975Z,24.10
2019-05-22T19:36:34.219Z,24.00
2019-05-22T19:39:03.622Z,23.80
2019-05-22T19:41:32.560Z,23.60
2019-05-22T19:44:01.905Z,23.50
2019-05-22T19:46:31.256Z,23.30
2019-05-22T19:49:00.253Z,23.30
2019-05-22T19:51:31.983Z,23.20
2019-05-22T19:54:01.124Z,23.10
2019-05-22T19:56:30.086Z,23.00
2019-05-22T19:58:59.252Z,22.80
2019-05-22T20:01:30.062Z,22.80
2019-05-22T20:03:59.158Z,22.80
2019-05-22T20:06:29.303Z,22.80
2019-05-22T20:08:59.199Z,22.70
2019-05-22T20:11:28.123Z,22.70
2019-05-22T20:13:56.924Z,22.60
2019-05-22T20:16:26.179Z,22.50
2019-05-22T20:18:55.694Z,22.50
2019-05-22T20:21:25.076Z,22.40
2019-05-22T20:23:54.025Z,22.40
2019-05-22T20:26:23.913Z,22.50
2019-05-22T20:28:52.820Z,22.40
2019-05-22T20:31:22.299Z,22.40
2019-05-22T20:33:51.174Z,22.30
2019-05-22T20:36:20.494Z,22.20
2019-05-22T20:38:49.355Z,22.20
2019-05-22T20:41:19.503Z,22.20
2019-05-22T20:43:50.159Z,22.20
2019-05-22T20:46:21.722Z,22.20
2019-05-22T20:48:50.679Z,22.10
2019-05-22T20:51:20.860Z,22.10
2019-05-22T20:53:54.507Z,22.00
2019-05-22T20:56:21.811Z,22.00
2019-05-22T20:58:52.908Z,22.00
2019-05-22T21:01:22.881Z,22.00
2019-05-22T21:03:51.959Z,21.90
2019-05-22T21:06:22.159Z,21.80
2019-05-22T21:08:51.652Z,21.70
2019-05-22T21:11:23.382Z,21.60
2019-05-22T21:13:53.852Z,21.50
2019-05-22T21:16:23.418Z,21.50
2019-05-22T21:18:53.699Z,21.50
2019-05-22T21:21:22.912Z,21.40
2019-05-22T21:23:53.015Z,21.20
2019-05-22T21:26:22.075Z,21.10
2019-05-22T21:28:52.377Z,20.90
2019-05-22T21:31:21.826Z,20.80
2019-05-22T21:33:51.135Z,20.70
2019-05-22T21:36:20.613Z,20.70
2019-05-22T21:38:50.121Z,20.60
2019-05-22T21:41:21.375Z,20.60
2019-05-22T21:43:50.617Z,20.60
2019-05-22T21:46:19.465Z,20.60
2019-05-22T21:48:50.056Z,20.50
2019-05-22T21:51:18.848Z,20.40
2019-05-22T21:53:47.827Z,20.40
2019-05-22T21:56:17.267Z,20.40
2019-05-22T21:58:46.288Z,20.40
2019-05-22T22:01:26.209Z,20.40
2019-05-22T22:04:02.637Z,20.30
2019-05-22T22:06:33.327Z,20.40
2019-05-22T22:09:02.772Z,20.40
2019-05-22T22:11:31.726Z,20.30
2019-05-22T22:14:01.609Z,20.30
2019-05-22T22:16:31.139Z,20.40
2019-05-22T22:18:59.859Z,20.30
2019-05-22T22:21:29.474Z,20.20
2019-05-22T22:23:58.294Z,20.20
2019-05-22T22:26:28.155Z,20.10
2019-05-22T22:28:57.258Z,20.00
2019-05-22T22:31:27.971Z,20.00
2019-05-22T22:33:59.773Z,20.00
2019-05-22T22:36:28.966Z,20.00
2019-05-22T22:38:58.882Z,19.90
2019-05-22T22:41:28.301Z,19.80
2019-05-22T22:43:58.687Z,19.80
2019-05-22T22:46:31.736Z,19.80
2019-05-22T22:49:02.399Z,19.90
2019-05-22T22:51:31.487Z,19.80
2019-05-22T22:54:01.011Z,19.80
2019-05-22T22:56:29.790Z,19.80
2019-05-22T22:58:59.715Z,19.80
2019-05-22T23:01:32.787Z,19.70
2019-05-22T23:04:04.751Z,19.70
2019-05-22T23:06:36.329Z,19.70
2019-05-22T23:09:07.457Z,19.60
2019-05-22T23:11:39.674Z,19.50
2019-05-22T23:14:10.167Z,19.50
2019-05-22T23:16:41.095Z,19.30
2019-05-22T23:19:14.490Z,19.30
2019-05-22T23:21:41.985Z,19.20
2019-05-22T23:24:11.231Z,19.10
2019-05-22T23:26:41.944Z,19.10
2019-05-22T23:29:11.767Z,19.10
2019-05-22T23:31:42.271Z,19.00
2019-05-22T23:34:11.674Z,19.00
2019-05-22T23:36:40.963Z,18.90
2019-05-22T23:39:15.469Z,18.80
2019-05-22T23:41:46.894Z,18.80
2019-05-22T23:44:21.479Z,18.80
2019-05-22T23:46:51.416Z,18.80
2019-05-22T23:49:20.454Z,18.80
2019-05-22T23:51:50.681Z,18.80
2019-05-22T23:54:20.798Z,18.80
2019-05-22T23:56:49.727Z,18.80
2019-05-22T23:59:18.580Z,18.80
